Time;durP1;ratioP1;P1;durP2;ratioP2;P2;SDS_P1;SDS_P2;PMS_P1;PMS_P2;Temp;Humidity;BMP_temperature;BMP_pressure;BME280_temperature;BME280_humidity;BME280_pressure;Samples;Min_cycle;Max_cycle;Signal;HPM_P1;HPM_P2
2021/06/18 00:02:06;;;;;;;4.53;1.87;;;;;;;18.23;81.60;99670.02;1780806;80;20934;-69
2021/06/18 00:04:32;;;;;;;2.25;1.92;;;;;;;18.23;81.38;99669.17;1780977;80;21064;-69
2021/06/18 00:06:59;;;;;;;2.45;2.00;;;;;;;18.23;81.32;99667.38;1780739;80;20942;-70
2021/06/18 00:09:26;;;;;;;4.65;2.25;;;;;;;18.24;81.11;99668.22;1780811;80;21378;-71
2021/06/18 00:11:52;;;;;;;4.72;2.00;;;;;;;18.23;80.98;99663.91;1780644;80;21025;-70
2021/06/18 00:14:18;;;;;;;2.67;2.00;;;;;;;18.21;80.93;99661.85;1780724;80;20926;-71
2021/06/18 00:16:45;;;;;;;3.52;1.95;;;;;;;18.19;80.88;99663.27;1780800;80;21139;-71
2021/06/18 00:19:11;;;;;;;2.87;1.90;;;;;;;18.16;80.83;99650.82;1780701;80;20962;-70
2021/06/18 00:21:37;;;;;;;3.17;2.08;;;;;;;18.14;80.85;99656.19;1781096;80;21489;-70
2021/06/18 00:24:06;;;;;;;4.75;2.17;;;;;;;18.11;80.89;99655.56;1780692;80;20982;-70
2021/06/18 00:26:32;;;;;;;2.83;1.70;;;;;;;18.07;80.95;99654.08;1781080;80;21175;-72
2021/06/18 00:28:58;;;;;;;4.17;2.12;;;;;;;18.04;81.00;99658.23;1780794;80;21132;-70
2021/06/18 00:31:25;;;;;;;2.95;2.12;;;;;;;18.00;81.14;99656.28;1780857;79;20915;-71
2021/06/18 00:33:51;;;;;;;2.25;2.05;;;;;;;17.97;81.30;99654.36;1782965;80;20985;-70
2021/06/18 00:36:18;;;;;;;6.03;1.87;;;;;;;17.92;81.49;99651.20;1786490;80;20954;-71
2021/06/18 00:38:44;;;;;;;2.35;1.67;;;;;;;17.88;81.66;99654.51;1786612;80;21469;-70
2021/06/18 00:41:10;;;;;;;3.08;2.00;;;;;;;17.85;81.72;99652.08;1786558;80;21149;-71
2021/06/18 00:43:37;;;;;;;7.35;2.10;;;;;;;17.80;82.01;99646.28;1786424;80;20966;-70
2021/06/18 00:46:03;;;;;;;3.00;1.77;;;;;;;17.77;82.06;99645.20;1786857;80;20999;-71
2021/06/18 00:48:30;;;;;;;7.50;2.27;;;;;;;17.72;82.09;99642.03;1786479;80;21056;-71
2021/06/18 00:50:56;;;;;;;2.83;1.70;;;;;;;17.70;82.17;99643.45;1786778;80;21410;-71
2021/06/18 00:53:24;;;;;;;2.72;1.80;;;;;;;17.68;82.26;99645.81;1786510;80;21139;-70
2021/06/18 00:55:51;;;;;;;3.30;1.80;;;;;;;17.64;82.40;99654.38;1786502;80;20946;-71
2021/06/18 00:58:17;;;;;;;6.40;1.92;;;;;;;17.61;82.48;99655.87;1786641;80;21431;-70
2021/06/18 01:00:44;;;;;;;2.27;1.75;;;;;;;17.58;82.60;99648.21;1786468;80;21017;-70
2021/06/18 01:03:12;;;;;;;5.55;1.85;;;;;;;17.56;82.62;99657.98;1786584;80;21028;-70
2021/06/18 01:05:38;;;;;;;2.25;1.70;;;;;;;17.53;82.64;99655.56;1786561;80;21117;-71
2021/06/18 01:08:25;;;;;;;4.55;1.92;;;;;;;17.50;82.76;99663.64;1786681;80;21442;-70
2021/06/18 01:11:09;;;;;;;4.03;2.10;;;;;;;17.47;82.79;99662.06;1786665;80;21541;-70
2021/06/18 01:13:48;;;;;;;2.20;2.00;;;;;;;17.44;82.87;99653.05;1786595;79;20981;-69
2021/06/18 01:16:53;;;;;;;4.42;1.95;;;;;;;17.40;82.92;99662.09;1786575;80;20977;-69
2021/06/18 01:19:26;;;;;;;4.33;1.90;;;;;;;17.38;83.00;99657.91;1758147;80;21146;-69
2021/06/18 01:21:58;;;;;;;;;;;;;;;17.35;83.14;99654.16;1789094;80;21042;-69
2021/06/18 01:25:11;;;;;;;2.85;2.20;;;;;;;17.32;83.17;99649.94;1786174;80;20142;-70
2021/06/18 01:27:46;;;;;;;3.05;1.80;;;;;;;17.29;83.21;99649.30;1786573;80;20938;-69
2021/06/18 01:30:18;;;;;;;3.15;2.12;;;;;;;17.25;83.14;99646.49;1786774;80;21017;-69
2021/06/18 01:32:58;;;;;;;2.83;2.08;;;;;;;17.22;83.18;99637.02;1786759;80;21105;-69
2021/06/18 01:35:29;;;;;;;3.27;2.30;;;;;;;17.20;83.25;99644.16;1781125;80;20978;-69
2021/06/18 01:37:57;;;;;;;4.42;2.02;;;;;;;17.16;83.33;99634.34;1780756;80;21462;-70
2021/06/18 01:40:24;;;;;;;4.47;2.10;;;;;;;17.15;83.36;99635.76;1780639;80;20974;-69
2021/06/18 01:42:50;;;;;;;2.37;2.17;;;;;;;17.14;83.34;99638.02;1780654;80;21013;-69
2021/06/18 01:45:18;;;;;;;2.90;1.90;;;;;;;17.13;83.37;99634.55;1780944;80;21860;-70
2021/06/18 01:47:46;;;;;;;4.87;2.45;;;;;;;17.11;83.39;99635.11;1780675;80;21033;-69
2021/06/18 01:50:16;;;;;;;6.30;2.12;;;;;;;17.11;83.34;99639.05;1780724;80;20973;-69
2021/06/18 01:52:50;;;;;;;2.77;1.87;;;;;;;17.11;83.24;99636.90;1780703;80;20974;-69
2021/06/18 01:55:19;;;;;;;3.52;2.10;;;;;;;17.13;83.01;99637.64;1780760;80;20966;-69
2021/06/18 01:57:45;;;;;;;3.87;2.20;;;;;;;17.14;82.80;99634.07;1780651;80;21130;-70
2021/06/18 02:00:13;;;;;;;7.28;2.22;;;;;;;17.14;82.61;99636.23;1780925;80;20994;-69
2021/06/18 02:02:41;;;;;;;2.45;2.10;;;;;;;17.14;82.43;99633.60;1780654;80;20982;-69
2021/06/18 02:05:09;;;;;;;4.00;1.75;;;;;;;17.13;82.28;99632.39;1781000;80;21430;-70
2021/06/18 02:07:35;;;;;;;4.95;2.00;;;;;;;17.17;82.15;99633.88;1780803;80;20938;-70
2021/06/18 02:10:07;;;;;;;4.45;2.27;;;;;;;17.20;81.99;99634.48;1750821;80;21087;-70
2021/06/18 02:12:34;;;;;;;4.15;2.00;;;;;;;17.33;81.59;99632.38;1780685;79;21041;-70
2021/06/18 02:15:06;;;;;;;6.47;2.15;;;;;;;17.47;80.92;99630.98;1780900;80;21410;-70
2021/06/18 02:17:32;;;;;;;4.75;2.05;;;;;;;17.63;80.51;99632.94;1780817;80;20986;-70
2021/06/18 02:19:59;;;;;;;5.22;2.22;;;;;;;17.84;78.93;99631.98;1780920;80;20950;-70
2021/06/18 02:22:25;;;;;;;4.40;2.20;;;;;;;18.04;78.13;99630.59;1780978;80;21959;-70
2021/06/18 02:24:53;;;;;;;5.15;2.02;;;;;;;18.24;77.06;99628.73;1780816;80;20970;-70
2021/06/18 02:27:20;;;;;;;6.03;1.80;;;;;;;18.45;75.93;99625.89;1750526;80;21081;-70
2021/06/18 02:29:46;;;;;;;3.12;1.60;;;;;;;18.69;74.81;99629.08;1781068;80;21422;-70
2021/06/18 02:32:13;;;;;;;3.87;1.72;;;;;;;18.91;73.06;99628.73;1780770;80;20990;-70
2021/06/18 02:34:41;;;;;;;2.33;1.60;;;;;;;19.13;72.46;99627.98;1780611;80;21125;-70
2021/06/18 02:37:10;;;;;;;4.03;1.65;;;;;;;19.38;71.04;99633.59;1780714;80;20923;-69
2021/06/18 02:39:39;;;;;;;4.20;1.98;;;;;;;19.60;70.22;99632.34;1780761;80;20936;-69
2021/06/18 02:42:06;;;;;;;3.70;1.80;;;;;;;19.83;69.08;99629.75;1781141;80;20938;-69
2021/06/18 02:44:33;;;;;;;5.15;2.10;;;;;;;20.06;67.71;99634.09;1781007;80;21009;-69
2021/06/18 02:47:13;;;;;;;7.87;1.85;;;;;;;20.26;67.16;99640.45;1781467;80;21063;-70
2021/06/18 02:49:50;;;;;;;3.80;1.57;;;;;;;20.45;66.30;99626.17;1779872;80;21387;-70
2021/06/18 02:52:37;;;;;;;4.47;1.60;;;;;;;20.69;65.00;99633.11;1780822;80;21469;-71
2021/06/18 02:55:12;;;;;;;4.72;2.10;;;;;;;20.88;64.51;99631.97;1780127;80;21486;-69
2021/06/18 02:57:49;;;;;;;4.53;1.92;;;;;;;21.08;63.52;99619.28;1781257;80;20930;-69
2021/06/18 03:00:17;;;;;;;6.55;1.95;;;;;;;21.27;62.53;99626.56;1776934;80;21107;-70
2021/06/18 03:02:48;;;;;;;5.95;2.22;;;;;;;21.48;62.02;99623.93;1780944;80;21025;-70
2021/06/18 03:05:16;;;;;;;6.42;2.10;;;;;;;21.73;60.73;99634.14;1780896;80;21458;-70
2021/06/18 03:07:50;;;;;;;5.08;1.80;;;;;;;21.89;59.63;99629.69;1780739;80;21021;-70
2021/06/18 03:10:19;;;;;;;2.17;1.57;;;;;;;21.94;59.23;99628.33;1751973;80;20981;-70
2021/06/18 03:12:45;;;;;;;3.33;1.70;;;;;;;22.02;59.37;99632.98;1780804;80;21162;-70
2021/06/18 03:15:15;;;;;;;2.40;1.77;;;;;;;22.28;58.50;99629.41;1780739;80;21485;-70
2021/06/18 03:17:42;;;;;;;5.42;1.92;;;;;;;22.49;57.47;99629.33;1780911;80;21029;-71
2021/06/18 03:20:14;;;;;;;3.65;1.92;;;;;;;22.68;57.14;99626.24;1750586;80;20954;-70
2021/06/18 03:22:40;;;;;;;3.98;1.70;;;;;;;22.91;56.23;99622.05;1780855;80;21009;-70
2021/06/18 03:25:08;;;;;;;4.53;1.65;;;;;;;23.17;55.58;99622.35;1750571;80;21182;-71
2021/06/18 03:27:36;;;;;;;4.90;1.90;;;;;;;23.41;54.83;99618.75;1780728;80;21018;-70
2021/06/18 03:30:05;;;;;;;4.37;2.00;;;;;;;23.64;53.24;99611.34;1750755;80;20993;-71
2021/06/18 03:32:32;;;;;;;2.98;1.75;;;;;;;23.83;52.92;99612.62;1780693;80;20993;-71
2021/06/18 03:34:59;;;;;;;6.25;1.90;;;;;;;24.02;52.63;99616.54;1783365;80;20922;-71
2021/06/18 03:37:26;;;;;;;6.92;1.80;;;;;;;24.25;51.24;99610.89;1758400;80;21186;-71
2021/06/18 03:39:52;;;;;;;5.25;1.67;;;;;;;24.42;50.28;99630.53;1786575;80;20981;-71
2021/06/18 03:42:19;;;;;;;3.45;1.77;;;;;;;24.50;50.19;99612.86;1758188;80;21045;-71
2021/06/18 03:44:46;;;;;;;2.98;2.08;;;;;;;24.61;49.60;99613.97;1758248;80;20945;-71
2021/06/18 03:47:12;;;;;;;5.42;1.50;;;;;;;24.73;50.10;99611.95;1786774;80;21519;-71
2021/06/18 03:49:39;;;;;;;4.70;1.80;;;;;;;24.91;48.78;99623.45;1786546;79;21123;-71
2021/06/18 03:52:05;;;;;;;5.95;1.70;;;;;;;25.02;48.73;99626.39;1786651;80;21386;-71
2021/06/18 03:54:32;;;;;;;4.37;1.87;;;;;;;25.22;48.39;99619.09;1786498;80;20993;-69
2021/06/18 03:56:59;;;;;;;3.77;2.02;;;;;;;25.44;47.59;99620.44;1786623;80;20954;-70
2021/06/18 03:59:25;;;;;;;3.60;1.40;;;;;;;25.69;47.24;99620.99;1786591;80;20989;-71
2021/06/18 04:01:53;;;;;;;3.52;1.60;;;;;;;25.95;46.17;99635.66;1786508;80;21124;-70
2021/06/18 04:04:22;;;;;;;2.83;1.80;;;;;;;26.07;46.01;99625.88;1786759;80;21076;-69
2021/06/18 04:06:48;;;;;;;3.17;1.50;;;;;;;26.21;45.54;99630.27;1786532;80;20934;-70
2021/06/18 04:09:16;;;;;;;4.10;1.55;;;;;;;26.27;44.82;99618.48;1786575;80;20978;-70
2021/06/18 04:11:45;;;;;;;5.90;2.15;;;;;;;26.30;44.97;99623.53;1786772;80;21473;-69
2021/06/18 04:14:13;;;;;;;3.58;1.60;;;;;;;26.35;45.12;99621.72;1786606;80;21134;-71
2021/06/18 04:16:40;;;;;;;4.55;1.60;;;;;;;26.40;44.78;99624.22;1786456;80;21029;-69
2021/06/18 04:19:08;;;;;;;3.20;2.17;;;;;;;26.45;43.94;99626.41;1786598;80;20970;-69
2021/06/18 04:21:43;;;;;;;4.55;1.92;;;;;;;26.37;44.07;99620.57;1786502;80;20957;-69
2021/06/18 04:24:14;;;;;;;9.28;2.08;;;;;;;26.28;44.26;99630.81;1786789;80;20942;-71
2021/06/18 04:26:41;;;;;;;5.90;1.75;;;;;;;26.11;44.66;99625.57;1786514;80;21145;-71
2021/06/18 04:29:07;;;;;;;5.72;1.47;;;;;;;26.00;45.21;99620.84;1786524;80;20927;-71
2021/06/18 04:31:36;;;;;;;5.35;1.67;;;;;;;26.08;45.36;99637.38;1786674;80;23285;-71
2021/06/18 04:34:07;;;;;;;3.85;1.50;;;;;;;26.15;44.58;99633.09;1786388;80;20957;-72
2021/06/18 04:36:37;;;;;;;3.87;1.67;;;;;;;26.11;44.67;99633.56;1780988;80;21029;-71
2021/06/18 04:39:05;;;;;;;4.47;1.90;;;;;;;26.00;44.75;99632.83;1780885;80;21963;-71
2021/06/18 04:41:32;;;;;;;3.80;1.77;;;;;;;25.88;44.76;99628.77;1780621;80;20990;-72
2021/06/18 04:43:58;;;;;;;2.62;1.57;;;;;;;25.82;45.31;99621.89;1781030;80;20938;-71
2021/06/18 04:46:24;;;;;;;5.78;1.80;;;;;;;25.80;45.39;99619.87;1780786;80;21530;-71
2021/06/18 04:48:51;;;;;;;3.80;1.90;;;;;;;25.69;45.03;99624.49;1780662;80;21037;-72
2021/06/18 04:51:18;;;;;;;4.37;1.72;;;;;;;25.66;45.69;99617.30;1780761;80;21098;-72
2021/06/18 04:53:46;;;;;;;3.15;1.60;;;;;;;25.71;45.54;99619.84;1780624;80;21052;-72
2021/06/18 04:56:13;;;;;;;4.33;1.52;;;;;;;25.78;45.53;99617.38;1780333;80;21458;-71
2021/06/18 04:58:39;;;;;;;4.60;1.70;;;;;;;25.84;45.45;99630.57;1780173;80;20997;-70
2021/06/18 05:01:06;;;;;;;5.60;1.40;;;;;;;25.78;45.17;99639.21;1780147;80;20942;-71
2021/06/18 05:03:33;;;;;;;5.80;1.47;;;;;;;25.54;45.62;99619.86;1780581;80;21120;-72
2021/06/18 05:06:00;;;;;;;2.27;1.50;;;;;;;25.45;46.41;99630.09;1780951;80;20934;-71
2021/06/18 05:08:26;;;;;;;5.15;2.08;;;;;;;25.53;46.45;99628.84;1780607;80;20935;-71
2021/06/18 05:10:53;;;;;;;5.45;1.80;;;;;;;25.66;46.35;99627.47;1780616;80;20962;-71
2021/06/18 05:13:20;;;;;;;3.95;1.42;;;;;;;25.61;46.08;99635.05;1780588;80;21065;-71
2021/06/18 05:15:46;;;;;;;8.90;1.90;;;;;;;25.59;46.74;99618.38;1780748;80;21781;-71
2021/06/18 05:18:13;;;;;;;6.22;1.50;;;;;;;25.69;46.00;99629.82;1780617;80;21013;-71
2021/06/18 05:20:41;;;;;;;6.70;2.00;;;;;;;25.70;45.93;99624.84;1780648;80;20959;-71
2021/06/18 05:23:09;;;;;;;2.90;1.47;;;;;;;25.67;45.83;99615.81;1780811;80;20970;-71
2021/06/18 05:25:36;;;;;;;3.98;1.57;;;;;;;25.59;45.91;99617.05;1780626;80;20965;-72
2021/06/18 05:28:03;;;;;;;2.22;1.75;;;;;;;25.53;46.65;99632.34;1780836;80;21858;-71
2021/06/18 05:30:30;;;;;;;2.80;1.77;;;;;;;25.63;46.86;99622.45;1780631;80;21383;-72
2021/06/18 05:32:56;;;;;;;2.25;1.67;;;;;;;25.71;46.96;99623.84;1780566;80;21036;-71
2021/06/18 05:35:22;;;;;;;4.05;2.00;;;;;;;25.90;46.75;99621.46;1782592;80;21053;-70
2021/06/18 05:37:52;;;;;;;5.10;1.62;;;;;;;26.04;45.48;99606.20;1786466;80;21375;-72
2021/06/18 05:40:18;;;;;;;2.95;2.00;;;;;;;25.97;45.79;99610.52;1786398;80;21096;-70
2021/06/18 05:42:45;;;;;;;6.40;2.33;;;;;;;25.91;45.76;99611.14;1786314;80;21013;-72
2021/06/18 05:45:12;;;;;;;2.40;1.80;;;;;;;25.84;45.65;99614.58;1786651;80;20993;-71
2021/06/18 05:47:39;;;;;;;7.17;2.22;;;;;;;25.78;46.19;99612.57;1786644;80;21004;-71
2021/06/18 05:50:07;;;;;;;3.80;1.95;;;;;;;25.67;46.77;99619.81;1786380;80;20934;-72
2021/06/18 05:52:33;;;;;;;9.28;1.70;;;;;;;25.67;46.71;99616.31;1786553;80;21759;-70
2021/06/18 05:55:00;;;;;;;2.52;1.70;;;;;;;25.67;47.17;99615.81;1786228;80;21083;-71
2021/06/18 05:57:26;;;;;;;5.35;1.70;;;;;;;25.75;47.40;99623.04;1786541;80;21442;-70
2021/06/18 05:59:53;;;;;;;4.37;1.72;;;;;;;25.89;47.05;99629.61;1786449;80;21060;-70
2021/06/18 06:02:19;;;;;;;3.75;2.08;;;;;;;25.97;46.73;99619.02;1786379;79;20922;-70
2021/06/18 06:04:46;;;;;;;5.58;1.70;;;;;;;25.88;46.77;99625.27;1786541;79;21389;-71
2021/06/18 06:07:12;;;;;;;5.67;1.87;;;;;;;25.67;46.99;99629.63;1786426;80;20957;-71
2021/06/18 06:09:38;;;;;;;5.62;2.25;;;;;;;25.46;47.59;99651.25;1786357;80;20954;-71
2021/06/18 06:12:06;;;;;;;5.35;1.95;;;;;;;25.21;48.08;99624.06;1786388;80;21430;-70
2021/06/18 06:14:33;;;;;;;4.78;1.72;;;;;;;24.99;48.77;99626.20;1786317;80;21005;-70
2021/06/18 06:17:01;;;;;;;3.30;1.67;;;;;;;24.86;49.72;99626.20;1786337;80;21549;-68
2021/06/18 06:19:28;;;;;;;5.08;1.80;;;;;;;24.79;49.83;99626.45;1785755;80;21044;-72
2021/06/18 06:21:54;;;;;;;4.03;1.87;;;;;;;24.69;50.56;99633.18;1786766;80;20985;-72
2021/06/18 06:24:21;;;;;;;2.62;1.40;;;;;;;24.68;50.12;99625.69;1785913;80;21040;-71
2021/06/18 06:26:47;;;;;;;2.62;1.72;;;;;;;24.69;50.44;99630.52;1785910;80;21031;-73
2021/06/18 06:29:14;;;;;;;4.42;2.10;;;;;;;24.70;50.34;99638.35;1786335;80;21047;-69
2021/06/18 06:31:43;;;;;;;3.80;1.65;;;;;;;24.68;50.47;99631.02;1786312;80;21076;-72
2021/06/18 06:34:09;;;;;;;4.87;2.20;;;;;;;24.68;51.00;99626.19;1786798;80;20935;-71
2021/06/18 06:36:36;;;;;;;4.83;1.98;;;;;;;24.66;50.67;99618.84;1782002;80;20946;-70
2021/06/18 06:39:05;;;;;;;5.35;2.12;;;;;;;24.60;51.58;99612.30;1780646;80;21033;-69
2021/06/18 06:41:32;;;;;;;2.52;1.85;;;;;;;24.57;52.05;99634.39;1780526;80;21110;-69
2021/06/18 06:43:58;;;;;;;3.58;2.00;;;;;;;24.51;51.42;99628.32;1780551;80;21383;-73
2021/06/18 06:46:25;;;;;;;3.67;1.90;;;;;;;24.38;52.01;99616.69;1780589;80;20941;-71
2021/06/18 06:48:52;;;;;;;8.10;2.17;;;;;;;24.32;52.88;99625.27;1780629;80;20985;-71
2021/06/18 06:51:18;;;;;;;5.45;1.90;;;;;;;24.30;53.20;99629.90;1780770;80;21430;-71
2021/06/18 06:53:44;;;;;;;8.88;1.92;;;;;;;24.31;52.92;99623.11;1780666;80;21101;-72
2021/06/18 06:56:11;;;;;;;2.37;1.60;;;;;;;24.29;52.92;99632.20;1780639;80;21210;-70
2021/06/18 06:58:37;;;;;;;4.30;1.92;;;;;;;24.21;53.72;99632.06;1780730;80;20939;-72
2021/06/18 07:01:05;;;;;;;4.12;1.87;;;;;;;24.18;54.73;99634.52;1780681;79;20955;-72
2021/06/18 07:03:32;;;;;;;4.95;1.90;;;;;;;24.22;54.67;99636.39;1780906;80;21462;-71
2021/06/18 07:05:58;;;;;;;5.22;2.22;;;;;;;24.20;54.00;99629.05;1780784;80;21383;-70
2021/06/18 07:08:25;;;;;;;7.10;2.20;;;;;;;24.13;54.35;99639.45;1780687;80;20906;-70
2021/06/18 07:10:53;;;;;;;7.25;1.80;;;;;;;24.02;54.43;99643.59;1780724;80;21014;-71
2021/06/18 07:13:20;;;;;;;5.12;1.92;;;;;;;23.94;54.67;99635.05;1780745;80;21063;-71
2021/06/18 07:15:48;;;;;;;3.00;2.10;;;;;;;23.90;55.19;99631.48;1780640;80;20942;-71
2021/06/18 07:18:15;;;;;;;9.58;2.55;;;;;;;23.86;55.20;99628.27;1750877;80;21762;-72
2021/06/18 07:20:41;;;;;;;5.22;2.00;;;;;;;23.81;55.77;99621.71;1780661;80;21013;-70
2021/06/18 07:23:09;;;;;;;9.00;1.95;;;;;;;23.79;55.48;99627.16;1780781;80;21433;-70
2021/06/18 07:25:37;;;;;;;5.70;1.80;;;;;;;23.80;56.83;99618.22;1780992;80;21390;-71
2021/06/18 07:28:06;;;;;;;3.67;2.12;;;;;;;23.86;55.71;99624.78;1780695;80;20997;-70
2021/06/18 07:30:34;;;;;;;6.60;1.85;;;;;;;23.84;55.36;99614.30;1780647;80;21137;-71
2021/06/18 07:33:03;;;;;;;4.15;1.85;;;;;;;23.80;56.19;99607.59;1780749;80;21363;-72
2021/06/18 07:35:30;;;;;;;5.60;1.98;;;;;;;23.82;55.88;99606.95;1781135;80;20978;-71
2021/06/18 07:37:57;;;;;;;5.53;2.77;;;;;;;23.84;56.10;99607.66;1786460;80;20949;-71
2021/06/18 07:40:24;;;;;;;3.95;2.12;;;;;;;23.91;56.15;99609.25;1786625;80;21061;-71
2021/06/18 07:42:50;;;;;;;3.50;1.87;;;;;;;23.98;55.89;99611.69;1786735;80;21109;-72
2021/06/18 07:45:17;;;;;;;5.47;2.10;;;;;;;23.98;56.07;99608.51;1786366;80;20966;-71
2021/06/18 07:47:43;;;;;;;4.20;1.80;;;;;;;24.02;57.18;99614.38;1786770;80;21457;-71
2021/06/18 07:50:14;;;;;;;7.15;2.47;;;;;;;24.11;56.73;99612.19;1786551;79;21046;-71
2021/06/18 07:52:41;;;;;;;5.25;1.80;;;;;;;24.18;55.59;99623.88;1786358;80;21080;-70
2021/06/18 07:55:11;;;;;;;6.97;2.27;;;;;;;24.24;55.93;99631.31;1786476;80;21081;-71
2021/06/18 07:57:38;;;;;;;4.90;2.10;;;;;;;24.32;55.67;99637.23;1786063;80;20981;-71
2021/06/18 08:00:06;;;;;;;6.10;2.00;;;;;;;24.39;55.61;99647.61;1786929;80;21508;-72
2021/06/18 08:02:35;;;;;;;2.10;1.85;;;;;;;24.52;55.73;99647.28;1786519;79;20990;-72
2021/06/18 08:05:01;;;;;;;5.22;1.82;;;;;;;24.66;56.30;99636.14;1786519;80;20969;-70
2021/06/18 08:07:28;;;;;;;6.10;1.80;;;;;;;24.86;56.19;99644.34;1777446;80;21713;-71
2021/06/18 08:09:55;;;;;;;4.12;1.77;;;;;;;24.99;54.48;99655.47;1769567;80;21473;-71
2021/06/18 08:12:22;;;;;;;4.10;2.10;;;;;;;25.09;53.98;99647.92;1767448;80;21128;-70
2021/06/18 08:14:49;;;;;;;4.58;1.90;;;;;;;25.19;54.76;99652.66;1785288;80;21009;-69
2021/06/18 08:17:17;;;;;;;5.33;1.92;;;;;;;25.27;55.01;99644.27;1785834;80;20922;-71
2021/06/18 08:19:44;;;;;;;2.90;1.90;;;;;;;25.31;53.71;99635.48;1786466;80;21090;-71
2021/06/18 08:22:10;;;;;;;2.95;1.82;;;;;;;25.24;54.03;99640.58;1786471;79;21443;-71
2021/06/18 08:24:37;;;;;;;10.63;1.90;;;;;;;25.17;52.94;99630.22;1786411;80;20934;-72
2021/06/18 08:27:04;;;;;;;2.58;1.92;;;;;;;25.07;54.02;99644.08;1786601;80;20962;-71
2021/06/18 08:29:30;;;;;;;3.35;1.85;;;;;;;24.99;54.70;99642.66;1786417;80;21013;-71
2021/06/18 08:31:57;;;;;;;2.37;2.00;;;;;;;24.96;55.16;99641.66;1786441;80;21129;-71
2021/06/18 08:34:23;;;;;;;4.25;1.70;;;;;;;24.97;55.03;99643.33;1786546;80;21476;-73
2021/06/18 08:36:49;;;;;;;3.50;1.82;;;;;;;24.99;54.43;99658.13;1785707;80;21546;-69
2021/06/18 08:39:16;;;;;;;2.17;1.82;;;;;;;24.96;54.62;99661.12;1785066;80;21072;-70
2021/06/18 08:41:42;;;;;;;8.15;1.95;;;;;;;24.98;54.88;99654.31;1785515;80;21052;-70
2021/06/18 08:44:08;;;;;;;3.75;1.90;;;;;;;25.05;54.81;99656.70;1786282;80;21164;-72
2021/06/18 08:46:36;;;;;;;4.83;2.05;;;;;;;25.16;55.44;99647.17;1786370;80;20918;-72
2021/06/18 08:49:03;;;;;;;6.40;2.00;;;;;;;25.31;54.64;99664.77;1786618;80;21469;-72
2021/06/18 08:51:29;;;;;;;3.50;1.90;;;;;;;25.33;53.87;99647.66;1786561;80;20934;-70
2021/06/18 08:53:56;;;;;;;6.78;1.77;;;;;;;25.29;54.20;99648.95;1757670;80;20950;-72
2021/06/18 08:56:22;;;;;;;7.80;1.80;;;;;;;25.27;54.33;99653.59;1786658;80;21089;-73
2021/06/18 08:58:48;;;;;;;2.33;1.87;;;;;;;25.30;54.39;99648.45;1786405;80;21386;-72
2021/06/18 09:01:15;;;;;;;5.67;2.35;;;;;;;25.36;54.92;99646.52;1786495;79;20941;-72
2021/06/18 09:03:47;;;;;;;5.60;1.47;;;;;;;25.48;54.77;99661.25;1786370;80;21041;-72
2021/06/18 09:06:34;;;;;;;3.83;1.87;;;;;;;25.60;54.17;99657.84;1786695;80;20985;-72
2021/06/18 09:09:21;;;;;;;4.78;2.00;;;;;;;25.67;54.12;99653.11;1786385;80;21137;-72
2021/06/18 09:11:55;;;;;;;7.62;1.70;;;;;;;25.67;53.92;99653.11;1786692;80;20942;-72
2021/06/18 09:14:35;;;;;;;4.65;1.95;;;;;;;25.60;53.65;99661.34;1786471;80;21064;-73
2021/06/18 09:17:13;;;;;;;5.12;1.90;;;;;;;25.53;54.02;99646.98;1786590;80;21595;-72
2021/06/18 09:19:51;;;;;;;2.30;1.70;;;;;;;25.58;54.02;99657.19;1786416;80;20985;-72
2021/06/18 09:22:40;;;;;;;5.03;1.90;;;;;;;25.60;54.64;99640.52;1786479;80;20934;-72
2021/06/18 09:25:16;;;;;;;3.55;2.12;;;;;;;25.60;54.83;99641.86;1786434;80;20985;-72
2021/06/18 09:27:48;;;;;;;4.25;1.80;;;;;;;25.61;54.94;99643.53;1786416;80;20982;-72
2021/06/18 09:30:27;;;;;;;11.38;2.62;;;;;;;25.58;54.32;99638.55;1786582;80;21524;-72
2021/06/18 09:33:07;;;;;;;1.70;1.60;;;;;;;25.51;54.91;99640.98;1786580;80;21122;-72
2021/06/18 09:35:33;;;;;;;3.35;2.05;;;;;;;25.47;55.64;99622.30;1786777;80;20970;-72
2021/06/18 09:38:03;;;;;;;2.90;2.00;;;;;;;25.51;55.33;99615.68;1781217;80;20962;-72
2021/06/18 09:40:30;;;;;;;4.20;2.15;;;;;;;25.55;56.11;99612.21;1780550;80;20965;-71
2021/06/18 09:43:02;;;;;;;2.37;1.80;;;;;;;25.66;55.59;99618.14;1780821;80;20989;-72
2021/06/18 09:45:33;;;;;;;;;;;;;;;25.78;54.47;99626.70;1783329;80;21071;-71
2021/06/18 09:48:13;;;;;;;8.80;2.05;;;;;;;25.89;54.45;99632.28;1780668;80;21700;-72
2021/06/18 09:50:43;;;;;;;7.62;2.10;;;;;;;25.94;54.99;99629.98;1780730;80;21453;-72
2021/06/18 09:53:21;;;;;;;6.47;1.60;;;;;;;25.99;54.88;99616.99;1780520;80;21540;-72
2021/06/18 09:56:08;;;;;;;3.20;1.70;;;;;;;26.02;52.33;99626.02;1780553;80;20973;-73
2021/06/18 09:58:42;;;;;;;2.15;1.65;;;;;;;26.02;53.69;99612.69;1780258;80;21497;-72
2021/06/18 10:01:32;;;;;;;1.77;1.67;;;;;;;26.10;53.52;99611.41;1780903;80;21123;-71
2021/06/18 10:04:07;;;;;;;1.77;1.30;;;;;;;26.15;53.95;99606.44;1780540;80;21446;-72
2021/06/18 10:06:37;;;;;;;3.87;1.60;;;;;;;26.22;53.05;99607.95;1780798;80;20994;-72
2021/06/18 10:09:07;;;;;;;5.28;2.00;;;;;;;26.22;52.74;99601.28;1780780;80;21139;-72
2021/06/18 10:11:35;;;;;;;2.47;2.05;;;;;;;26.18;52.23;99613.29;1780851;80;21537;-71
2021/06/18 10:14:02;;;;;;;2.72;1.32;;;;;;;26.15;53.31;99598.45;1780607;79;21853;-72
2021/06/18 10:16:29;;;;;;;5.58;1.65;;;;;;;26.17;52.63;99610.28;1780574;80;20914;-72
2021/06/18 10:18:58;;;;;;;3.70;1.65;;;;;;;26.22;53.16;99598.62;1780784;80;20941;-72
2021/06/18 10:21:25;;;;;;;4.28;1.70;;;;;;;26.27;53.12;99589.65;1780637;80;21013;-72
2021/06/18 10:23:58;;;;;;;4.65;2.05;;;;;;;26.30;54.06;99600.03;1780591;80;21044;-72
2021/06/18 10:26:26;;;;;;;3.47;1.77;;;;;;;26.37;54.42;99601.06;1780630;80;21308;-71
2021/06/18 10:28:56;;;;;;;2.30;1.25;;;;;;;26.35;51.98;99634.56;1780448;80;20946;-72
2021/06/18 10:31:28;;;;;;;4.47;1.90;;;;;;;26.29;51.51;99611.19;1780662;80;20990;-72
2021/06/18 10:34:11;;;;;;;3.72;1.98;;;;;;;26.21;50.39;99611.61;1780676;80;20974;-71
2021/06/18 10:36:38;;;;;;;3.00;1.65;;;;;;;26.09;50.91;99618.56;1780731;80;21130;-70
2021/06/18 10:39:09;;;;;;;4.80;1.60;;;;;;;26.01;52.30;99606.52;1780772;80;22308;-71
2021/06/18 10:41:46;;;;;;;2.33;1.55;;;;;;;26.03;53.36;99599.70;1780819;80;21037;-72
2021/06/18 10:44:12;;;;;;;6.25;1.70;;;;;;;26.13;52.80;99606.26;1780861;80;20998;-71
2021/06/18 10:46:42;;;;;;;7.42;1.85;;;;;;;26.21;51.80;99605.78;1780883;80;21470;-72
2021/06/18 10:49:15;;;;;;;3.55;1.90;;;;;;;26.27;51.81;99602.98;1780507;80;20945;-72
2021/06/18 10:51:46;;;;;;;2.67;1.62;;;;;;;26.32;52.08;99597.54;1780659;80;21097;-73
2021/06/18 10:54:26;;;;;;;2.33;1.80;;;;;;;26.35;52.55;99586.56;1780109;80;21025;-73
2021/06/18 10:56:57;;;;;;;1.80;1.70;;;;;;;26.33;52.32;99586.38;1780880;80;20981;-72
2021/06/18 10:59:35;;;;;;;5.47;1.75;;;;;;;26.28;52.94;99589.48;1780773;80;21022;-73
2021/06/18 11:02:25;;;;;;;9.23;1.90;;;;;;;26.21;51.95;99595.61;1780794;80;21052;-72
2021/06/18 11:05:20;;;;;;;5.72;1.70;;;;;;;26.16;51.36;99589.95;1780647;80;21303;-72
2021/06/18 11:07:47;;;;;;;1.87;1.67;;;;;;;26.07;52.19;99606.39;1780929;80;20973;-72
2021/06/18 11:10:30;;;;;;;4.40;1.92;;;;;;;26.05;52.91;99601.71;1780662;80;20958;-72
2021/06/18 11:13:07;;;;;;;6.25;1.77;;;;;;;26.06;52.97;99610.88;1780765;80;21005;-70
2021/06/18 11:15:38;;;;;;;5.15;1.67;;;;;;;26.03;52.92;99600.53;1780927;80;21457;-72
2021/06/18 11:18:14;;;;;;;3.67;1.87;;;;;;;26.01;53.72;99591.02;1780791;80;21025;-73
2021/06/18 11:20:47;;;;;;;4.50;2.02;;;;;;;26.08;54.09;99590.23;1780703;80;21516;-72
2021/06/18 11:23:22;;;;;;;3.35;1.77;;;;;;;26.21;54.10;99588.45;1781169;80;20989;-72
2021/06/18 11:25:59;;;;;;;5.45;1.75;;;;;;;26.38;54.77;99588.87;1780803;80;21461;-71
2021/06/18 11:28:32;;;;;;;3.80;1.87;;;;;;;26.61;54.05;99606.95;1780480;80;20943;-72
2021/06/18 11:31:17;;;;;;;4.90;2.20;;;;;;;26.77;52.79;99600.34;1780696;80;21131;-74
2021/06/18 11:33:45;;;;;;;4.53;2.00;;;;;;;26.87;52.18;99588.17;1779454;80;20922;-72
2021/06/18 11:36:24;;;;;;;3.83;1.90;;;;;;;26.85;51.26;99607.52;1780609;80;20981;-70
2021/06/18 11:39:11;;;;;;;4.28;2.00;;;;;;;26.68;52.34;99604.81;1780672;80;21902;-71
2021/06/18 11:41:42;;;;;;;3.50;2.08;;;;;;;26.55;52.41;99604.95;1780851;80;21033;-71
2021/06/18 11:44:11;;;;;;;4.25;2.00;;;;;;;26.41;52.78;99600.55;1780991;80;21109;-69
2021/06/18 11:46:38;;;;;;;2.27;1.62;;;;;;;26.38;53.09;99593.38;1780595;80;21410;-72